Time;durP1;ratioP1;P1;durP2;ratioP2;P2;SDS_P1;SDS_P2;PMS_P1;PMS_P2;Temp;Humidity;BMP_temperature;BMP_pressure;BME280_temperature;BME280_humidity;BME280_pressure;Samples;Min_cycle;Max_cycle;Signal;HPM_P1;HPM_P2
2023/05/13 00:00:50;;;;;;;;;;;15.90;99.90;;;;;;5080310;28;19939;-65
2023/05/13 00:03:16;;;;;;;;;;;16.10;99.90;;;;;;5092648;28;19965;-65
2023/05/13 00:05:44;;;;;;;;;;;16.40;99.90;;;;;;5090606;28;19922;-66
2023/05/13 00:08:11;;;;;;;;;;;16.60;99.90;;;;;;5092746;28;20404;-68
2023/05/13 00:10:37;;;;;;;;;;;16.70;99.90;;;;;;5092424;28;20280;-73
2023/05/13 00:13:04;;;;;;;;;;;17.00;99.90;;;;;;5092636;28;19908;-74
2023/05/13 00:15:31;;;;;;;;;;;17.20;99.90;;;;;;5092552;28;19915;-70
2023/05/13 00:17:57;;;;;;;;;;;17.40;99.90;;;;;;5092608;28;19908;-73
2023/05/13 00:20:24;;;;;;;;;;;17.40;99.90;;;;;;5092359;28;19924;-64
2023/05/13 00:22:51;;;;;;;;;;;17.60;99.90;;;;;;5092491;28;19916;-65
2023/05/13 00:25:17;;;;;;;;;;;17.70;99.90;;;;;;5092779;28;19908;-65
2023/05/13 00:27:44;;;;;;;;;;;17.70;99.90;;;;;;5090839;28;19962;-68
2023/05/13 00:30:11;;;;;;;;;;;17.90;99.90;;;;;;5091189;28;19961;-64
2023/05/13 00:32:37;;;;;;;;;;;18.00;99.90;;;;;;5090411;28;19909;-67
2023/05/13 00:35:04;;;;;;;;;;;18.10;99.90;;;;;;5091243;28;19912;-75
2023/05/13 00:37:31;;;;;;;;;;;18.40;99.90;;;;;;5090640;28;20068;-68
2023/05/13 00:39:57;;;;;;;;;;;18.60;99.90;;;;;;5090620;28;20389;-71
2023/05/13 00:42:24;;;;;;;;;;;18.80;99.90;;;;;;5090758;28;19924;-72
2023/05/13 00:44:51;;;;;;;;;;;19.00;99.90;;;;;;5090887;28;20083;-69
2023/05/13 00:47:18;;;;;;;;;;;19.10;99.90;;;;;;5090663;28;20045;-74
2023/05/13 00:49:45;;;;;;;;;;;19.30;99.90;;;;;;5090878;28;19916;-74
2023/05/13 00:52:11;;;;;;;;;;;19.60;99.90;;;;;;5087721;28;20395;-66
2023/05/13 00:54:38;;;;;;;;;;;19.80;99.90;;;;;;5091047;28;19908;-68
2023/05/13 00:57:05;;;;;;;;;;;19.90;99.90;;;;;;5090758;28;19938;-66
2023/05/13 00:59:31;;;;;;;;;;;19.90;99.90;;;;;;5090849;28;19912;-66
2023/05/13 01:02:16;;;;;;;;;;;19.90;99.90;;;;;;5091963;28;19939;-66
2023/05/13 01:04:46;;;;;;;;;;;19.90;99.90;;;;;;5093373;28;20388;-64
2023/05/13 01:07:12;;;;;;;;;;;19.90;99.90;;;;;;5091954;28;19913;-71
2023/05/13 01:09:45;;;;;;;;;;;19.80;99.90;;;;;;5094687;28;20417;-70
2023/05/13 01:12:15;;;;;;;;;;;19.80;99.90;;;;;;5094826;28;19919;-77
2023/05/13 01:14:48;;;;;;;;;;;19.80;99.90;;;;;;5095043;28;19970;-78
2023/05/13 01:17:18;;;;;;;;;;;19.80;99.90;;;;;;5095824;28;19914;-77
2023/05/13 01:19:46;;;;;;;;;;;19.90;99.90;;;;;;5096266;28;19908;-71
2023/05/13 01:22:13;;;;;;;;;;;20.00;99.90;;;;;;5095787;28;19923;-78
2023/05/13 01:24:39;;;;;;;;;;;20.10;99.90;;;;;;5096346;28;19908;-65
2023/05/13 01:27:06;;;;;;;;;;;20.20;99.90;;;;;;5095260;28;19923;-66
2023/05/13 01:29:33;;;;;;;;;;;20.30;99.90;;;;;;5095616;28;19943;-77
2023/05/13 01:32:00;;;;;;;;;;;20.30;99.90;;;;;;5095666;28;20006;-71
2023/05/13 01:34:27;;;;;;;;;;;20.40;99.90;;;;;;5095684;28;19912;-69
2023/05/13 01:36:53;;;;;;;;;;;20.50;99.90;;;;;;5095222;28;19912;-78
2023/05/13 01:39:20;;;;;;;;;;;20.60;99.90;;;;;;5095561;28;19966;-67
2023/05/13 01:41:47;;;;;;;;;;;20.80;99.90;;;;;;5094827;28;20023;-65
2023/05/13 01:44:14;;;;;;;;;;;20.90;99.90;;;;;;5094377;28;19938;-78
2023/05/13 01:46:44;;;;;;;;;;;21.00;99.90;;;;;;5095067;28;20005;-78
2023/05/13 01:49:10;;;;;;;;;;;21.20;99.90;;;;;;5095600;28;19912;-70
2023/05/13 01:51:37;;;;;;;;;;;21.30;99.90;;;;;;5095058;28;19919;-73
2023/05/13 01:54:04;;;;;;;;;;;21.30;99.90;;;;;;5094380;28;19912;-79
2023/05/13 01:56:31;;;;;;;;;;;21.40;99.90;;;;;;5094819;28;19919;-72
2023/05/13 01:58:57;;;;;;;;;;;21.50;99.90;;;;;;5095310;28;19908;-68
2023/05/13 02:01:24;;;;;;;;;;;21.70;99.90;;;;;;5094620;28;19920;-70
2023/05/13 02:03:50;;;;;;;;;;;21.70;99.90;;;;;;5094311;28;20391;-78
2023/05/13 02:06:17;;;;;;;;;;;21.90;99.90;;;;;;5094292;28;20300;-67
2023/05/13 02:08:44;;;;;;;;;;;21.90;99.90;;;;;;5095056;28;20323;-68
2023/05/13 02:11:10;;;;;;;;;;;21.90;99.90;;;;;;5094566;28;19908;-69
2023/05/13 02:13:37;;;;;;;;;;;21.80;99.90;;;;;;5075561;28;19908;-69
2023/05/13 02:16:04;;;;;;;;;;;21.80;99.90;;;;;;5095080;28;19950;-70
2023/05/13 02:18:30;;;;;;;;;;;21.60;99.90;;;;;;5094194;28;19912;-67
2023/05/13 02:20:57;;;;;;;;;;;21.70;99.90;;;;;;5094475;28;19985;-68
2023/05/13 02:23:24;;;;;;;;;;;21.70;99.90;;;;;;5094314;28;19961;-64
2023/05/13 02:25:51;;;;;;;;;;;21.80;99.90;;;;;;5094433;28;19954;-76
2023/05/13 02:28:18;;;;;;;;;;;21.80;99.90;;;;;;5094618;28;19915;-77
2023/05/13 02:30:44;;;;;;;;;;;21.80;99.90;;;;;;5094948;28;19908;-69
2023/05/13 02:33:11;;;;;;;;;;;21.80;99.90;;;;;;5094642;28;19914;-77
2023/05/13 02:35:39;;;;;;;;;;;21.90;99.90;;;;;;5094870;28;19931;-74
2023/05/13 02:38:08;;;;;;;;;;;21.70;99.90;;;;;;5094691;28;20046;-67
2023/05/13 02:40:36;;;;;;;;;;;21.50;99.90;;;;;;5094111;28;19928;-74
2023/05/13 02:43:03;;;;;;;;;;;21.30;99.90;;;;;;5090865;28;19924;-76
2023/05/13 02:45:30;;;;;;;;;;;21.20;99.90;;;;;;5093877;28;20015;-72
2023/05/13 02:47:56;;;;;;;;;;;21.10;99.90;;;;;;5094614;28;20284;-72
2023/05/13 02:50:23;;;;;;;;;;;21.10;99.90;;;;;;5093677;28;20365;-76
2023/05/13 02:52:49;;;;;;;;;;;21.10;99.90;;;;;;5093358;28;19958;-74
2023/05/13 02:55:17;;;;;;;;;;;21.30;99.90;;;;;;5094444;28;19980;-85
2023/05/13 02:57:43;;;;;;;;;;;21.80;99.90;;;;;;5076626;28;19930;-78
2023/05/13 03:00:10;;;;;;;;;;;22.30;99.90;;;;;;5094759;28;19908;-75
2023/05/13 03:02:37;;;;;;;;;;;22.40;99.90;;;;;;5094027;28;19912;-88
2023/05/13 03:05:04;;;;;;;;;;;22.20;99.90;;;;;;5094099;28;19912;-78
2023/05/13 03:07:31;;;;;;;;;;;22.20;99.90;;;;;;5093398;28;20333;-79
2023/05/13 03:09:57;;;;;;;;;;;22.10;99.90;;;;;;5093065;28;19998;-82
2023/05/13 03:12:24;;;;;;;;;;;22.00;99.90;;;;;;5091742;28;20328;-66
2023/05/13 03:14:51;;;;;;;;;;;22.00;99.90;;;;;;5093053;28;19915;-75
2023/05/13 03:17:17;;;;;;;;;;;21.90;99.90;;;;;;5093553;28;20311;-76
2023/05/13 03:19:44;;;;;;;;;;;21.90;99.90;;;;;;5093792;28;20357;-71
2023/05/13 03:22:10;;;;;;;;;;;21.70;99.90;;;;;;5093636;28;19931;-68
2023/05/13 03:24:37;;;;;;;;;;;21.60;99.90;;;;;;5094117;28;20395;-74
2023/05/13 03:27:04;;;;;;;;;;;21.60;99.90;;;;;;5093425;28;19919;-66
2023/05/13 03:29:30;;;;;;;;;;;21.60;99.90;;;;;;5093101;28;19937;-65
2023/05/13 03:31:58;;;;;;;;;;;21.50;99.90;;;;;;5093397;28;19916;-76
2023/05/13 03:34:24;;;;;;;;;;;21.50;99.90;;;;;;5093386;28;19908;-69
2023/05/13 03:36:51;;;;;;;;;;;21.40;99.90;;;;;;5093499;28;20499;-73
2023/05/13 03:39:18;;;;;;;;;;;21.40;99.90;;;;;;5093247;28;19912;-77
2023/05/13 03:41:44;;;;;;;;;;;21.40;99.90;;;;;;5093066;28;19920;-68
2023/05/13 03:44:11;;;;;;;;;;;21.20;99.90;;;;;;5092691;28;19909;-72
2023/05/13 03:46:38;;;;;;;;;;;21.30;99.90;;;;;;5092769;28;19989;-73
2023/05/13 03:49:04;;;;;;;;;;;21.70;99.90;;;;;;5092443;28;19970;-70
2023/05/13 03:51:33;;;;;;;;;;;22.00;99.30;;;;;;5072592;28;19904;-72
2023/05/13 03:53:59;;;;;;;;;;;22.20;98.50;;;;;;5091052;28;19955;-68
2023/05/13 03:56:26;;;;;;;;;;;22.40;97.90;;;;;;5093573;28;20347;-70
2023/05/13 03:58:53;;;;;;;;;;;22.50;97.00;;;;;;5093006;28;20295;-70
2023/05/13 04:01:20;;;;;;;;;;;22.80;96.00;;;;;;5093677;28;20353;-71
2023/05/13 04:03:48;;;;;;;;;;;22.70;95.60;;;;;;5093312;28;20280;-81
2023/05/13 04:06:15;;;;;;;;;;;23.20;95.00;;;;;;5092812;28;20004;-79
2023/05/13 04:08:42;;;;;;;;;;;23.50;94.50;;;;;;5092187;28;19912;-78
2023/05/13 04:11:09;;;;;;;;;;;23.60;94.60;;;;;;5091804;28;19945;-69
2023/05/13 04:13:36;;;;;;;;;;;23.30;95.20;;;;;;5092210;28;19908;-65
2023/05/13 04:16:03;;;;;;;;;;;23.40;95.20;;;;;;5092438;28;20364;-72
2023/05/13 04:18:29;;;;;;;;;;;23.40;95.60;;;;;;5092022;28;19919;-74
2023/05/13 04:20:56;;;;;;;;;;;23.10;95.80;;;;;;5092235;28;20284;-66
2023/05/13 04:23:23;;;;;;;;;;;22.80;96.50;;;;;;5092821;28;20381;-79
2023/05/13 04:25:52;;;;;;;;;;;22.40;97.10;;;;;;5092753;28;19915;-71
2023/05/13 04:28:19;;;;;;;;;;;22.10;98.10;;;;;;5091769;28;19959;-77
2023/05/13 04:30:46;;;;;;;;;;;21.80;99.00;;;;;;5091906;28;19916;-70
2023/05/13 04:33:12;;;;;;;;;;;21.40;99.90;;;;;;5092027;28;19998;-70
2023/05/13 04:35:39;;;;;;;;;;;21.30;99.90;;;;;;5092577;28;19915;-80
2023/05/13 04:38:06;;;;;;;;;;;21.20;99.90;;;;;;5091532;28;19916;-72
2023/05/13 04:40:32;;;;;;;;;;;21.10;99.90;;;;;;5091858;28;20284;-75
2023/05/13 04:42:59;;;;;;;;;;;21.00;99.90;;;;;;5091430;28;20357;-76
2023/05/13 04:45:26;;;;;;;;;;;20.90;99.90;;;;;;5091849;28;20369;-80
2023/05/13 04:47:52;;;;;;;;;;;20.80;99.90;;;;;;5091907;28;19919;-70
2023/05/13 04:50:19;;;;;;;;;;;20.60;99.90;;;;;;5091910;28;19908;-71
2023/05/13 04:52:46;;;;;;;;;;;20.40;99.90;;;;;;5091520;28;19935;-71
2023/05/13 04:55:13;;;;;;;;;;;20.20;99.90;;;;;;5092014;28;19908;-71
2023/05/13 04:57:40;;;;;;;;;;;20.10;99.90;;;;;;5074273;28;19919;-75
2023/05/13 05:00:08;;;;;;;;;;;19.90;99.90;;;;;;5092476;28;19915;-73
2023/05/13 05:02:34;;;;;;;;;;;19.90;99.90;;;;;;5091762;28;19912;-70
2023/05/13 05:05:01;;;;;;;;;;;19.80;99.90;;;;;;5091630;28;19941;-69
2023/05/13 05:07:28;;;;;;;;;;;19.60;99.90;;;;;;5092401;28;19908;-80
2023/05/13 05:09:55;;;;;;;;;;;19.60;99.90;;;;;;5092039;28;20360;-72
2023/05/13 05:12:21;;;;;;;;;;;19.50;99.90;;;;;;5073774;28;19919;-71
2023/05/13 05:14:48;;;;;;;;;;;19.50;99.90;;;;;;5091730;28;19912;-71
2023/05/13 05:17:15;;;;;;;;;;;19.40;99.90;;;;;;5092148;28;19912;-75
2023/05/13 05:19:41;;;;;;;;;;;19.40;99.90;;;;;;5090879;28;19915;-74
2023/05/13 05:22:08;;;;;;;;;;;19.40;99.90;;;;;;5090346;28;19924;-74
2023/05/13 05:24:34;;;;;;;;;;;19.40;99.90;;;;;;5090181;28;20018;-83
2023/05/13 05:27:01;;;;;;;;;;;19.40;99.90;;;;;;5090670;28;20462;-68
2023/05/13 05:29:28;;;;;;;;;;;19.30;99.90;;;;;;5089902;28;19912;-74
2023/05/13 05:31:55;;;;;;;;;;;19.30;99.90;;;;;;5090537;28;19914;-77
2023/05/13 05:34:21;;;;;;;;;;;19.30;99.90;;;;;;5091092;28;19919;-67
2023/05/13 05:36:48;;;;;;;;;;;19.20;99.90;;;;;;5090626;28;19908;-66
2023/05/13 05:39:15;;;;;;;;;;;19.20;99.90;;;;;;5090193;28;19924;-73
2023/05/13 05:41:41;;;;;;;;;;;19.30;99.90;;;;;;5089756;28;20364;-71
2023/05/13 05:44:08;;;;;;;;;;;19.20;99.90;;;;;;5091272;28;19987;-67
2023/05/13 05:46:34;;;;;;;;;;;19.20;99.90;;;;;;5091150;28;20335;-70
2023/05/13 05:49:02;;;;;;;;;;;19.20;99.90;;;;;;5093484;28;20466;-67
2023/05/13 05:51:29;;;;;;;;;;;19.20;99.90;;;;;;5094243;28;19999;-69
2023/05/13 05:53:55;;;;;;;;;;;19.10;99.90;;;;;;5093944;28;19912;-78
2023/05/13 05:56:22;;;;;;;;;;;19.20;99.90;;;;;;5093884;28;19915;-72
2023/05/13 05:58:48;;;;;;;;;;;19.10;99.90;;;;;;5092299;28;19908;-73
2023/05/13 06:01:16;;;;;;;;;;;19.10;99.90;;;;;;5094041;28;20419;-81
2023/05/13 06:03:44;;;;;;;;;;;19.10;99.90;;;;;;5092176;28;19908;-86
2023/05/13 06:06:14;;;;;;;;;;;19.10;99.90;;;;;;5093891;28;20014;-80
2023/05/13 06:08:40;;;;;;;;;;;19.00;99.90;;;;;;5093915;28;19916;-67
2023/05/13 06:11:07;;;;;;;;;;;19.00;99.90;;;;;;5093672;28;20373;-68
2023/05/13 06:13:34;;;;;;;;;;;19.00;99.90;;;;;;5094291;28;20352;-76
2023/05/13 06:16:00;;;;;;;;;;;18.90;99.90;;;;;;5093668;28;19927;-71
2023/05/13 06:18:27;;;;;;;;;;;19.00;99.90;;;;;;5093342;28;20258;-68
2023/05/13 06:20:53;;;;;;;;;;;18.90;99.90;;;;;;5093434;28;19923;-71
2023/05/13 06:23:20;;;;;;;;;;;18.90;99.90;;;;;;5092499;28;19912;-70
2023/05/13 06:25:47;;;;;;;;;;;18.90;99.90;;;;;;5093135;28;19911;-68
2023/05/13 06:28:13;;;;;;;;;;;18.90;99.90;;;;;;5092878;28;20369;-74
2023/05/13 06:30:40;;;;;;;;;;;18.90;99.90;;;;;;5092857;28;19966;-75
2023/05/13 06:33:09;;;;;;;;;;;19.00;99.90;;;;;;5093012;28;19944;-71
2023/05/13 06:35:36;;;;;;;;;;;18.90;99.90;;;;;;5092919;28;19912;-67
2023/05/13 06:38:03;;;;;;;;;;;19.00;99.90;;;;;;5092702;28;19931;-68
2023/05/13 06:40:30;;;;;;;;;;;18.90;99.90;;;;;;5092313;28;19924;-72
2023/05/13 06:42:57;;;;;;;;;;;18.90;99.90;;;;;;5093106;28;20019;-70
2023/05/13 06:45:24;;;;;;;;;;;18.90;99.90;;;;;;5096387;28;19965;-69
2023/05/13 06:47:52;;;;;;;;;;;18.90;99.90;;;;;;5106470;28;20116;-69
2023/05/13 06:50:19;;;;;;;;;;;18.80;99.90;;;;;;5093591;28;20126;-70
2023/05/13 06:52:45;;;;;;;;;;;18.90;99.90;;;;;;5091250;28;19926;-69
2023/05/13 06:55:12;;;;;;;;;;;18.80;99.90;;;;;;5092138;28;20376;-70
2023/05/13 06:57:39;;;;;;;;;;;18.80;99.90;;;;;;5092075;28;19919;-71
2023/05/13 07:00:06;;;;;;;;;;;18.80;99.90;;;;;;5100841;28;20311;-71
2023/05/13 07:02:32;;;;;;;;;;;18.80;99.90;;;;;;5095054;28;20003;-70
2023/05/13 07:04:59;;;;;;;;;;;18.80;99.90;;;;;;5091009;28;20360;-70
2023/05/13 07:07:26;;;;;;;;;;;18.70;99.90;;;;;;5099585;28;19919;-71
2023/05/13 07:09:52;;;;;;;;;;;18.60;99.90;;;;;;5103923;28;19908;-69
2023/05/13 07:12:19;;;;;;;;;;;18.60;99.90;;;;;;5102049;28;20472;-70
2023/05/13 07:14:46;;;;;;;;;;;18.60;99.90;;;;;;5102112;28;19972;-71
2023/05/13 07:17:12;;;;;;;;;;;18.60;99.90;;;;;;5098518;28;19919;-71
2023/05/13 07:19:39;;;;;;;;;;;18.50;99.90;;;;;;5093587;28;19927;-69
2023/05/13 07:22:06;;;;;;;;;;;18.50;99.90;;;;;;5091330;28;19924;-70
2023/05/13 07:24:32;;;;;;;;;;;18.50;99.90;;;;;;5092321;28;19970;-70
2023/05/13 07:27:00;;;;;;;;;;;18.40;99.90;;;;;;5092509;28;20058;-71
2023/05/13 07:29:26;;;;;;;;;;;18.40;99.90;;;;;;5093791;28;19923;-71
2023/05/13 07:31:53;;;;;;;;;;;18.30;99.90;;;;;;5092931;28;19908;-69
2023/05/13 07:34:20;;;;;;;;;;;18.20;99.90;;;;;;5092967;28;19920;-69
2023/05/13 07:36:46;;;;;;;;;;;18.10;99.90;;;;;;5093025;28;19908;-70
2023/05/13 07:39:13;;;;;;;;;;;18.10;99.90;;;;;;5093181;28;20387;-69
2023/05/13 07:41:40;;;;;;;;;;;18.00;99.90;;;;;;5092608;28;19927;-69
2023/05/13 07:44:10;;;;;;;;;;;18.00;99.90;;;;;;5092821;28;19912;-70
2023/05/13 07:46:37;;;;;;;;;;;17.90;99.90;;;;;;5092722;28;20276;-68
2023/05/13 07:49:07;;;;;;;;;;;17.90;99.90;;;;;;5093450;28;19908;-68
2023/05/13 07:51:34;;;;;;;;;;;17.80;99.90;;;;;;5093015;28;19915;-70
2023/05/13 07:54:01;;;;;;;;;;;17.70;99.90;;;;;;5093422;28;19962;-70
2023/05/13 07:56:28;;;;;;;;;;;17.70;99.90;;;;;;5092486;28;20003;-70
2023/05/13 07:58:55;;;;;;;;;;;17.60;99.90;;;;;;5093168;28;20003;-70
2023/05/13 08:01:22;;;;;;;;;;;17.60;99.90;;;;;;5092798;28;19924;-70
2023/05/13 08:03:48;;;;;;;;;;;17.60;99.90;;;;;;5092652;28;20293;-69
2023/05/13 08:06:15;;;;;;;;;;;17.50;99.90;;;;;;5092714;28;20346;-69
2023/05/13 08:08:41;;;;;;;;;;;17.40;99.90;;;;;;5092230;28;19919;-69
2023/05/13 08:11:08;;;;;;;;;;;17.40;99.90;;;;;;5092440;28;20384;-69
2023/05/13 08:13:35;;;;;;;;;;;17.30;99.90;;;;;;5092260;28;19908;-72
2023/05/13 08:16:02;;;;;;;;;;;17.20;99.90;;;;;;5092498;28;19961;-71
2023/05/13 08:18:29;;;;;;;;;;;17.20;99.90;;;;;;5092416;28;19908;-69
2023/05/13 08:20:56;;;;;;;;;;;17.10;99.90;;;;;;5091695;28;19920;-68
2023/05/13 08:23:24;;;;;;;;;;;17.10;99.90;;;;;;5089253;28;19911;-69
2023/05/13 08:25:51;;;;;;;;;;;17.10;99.90;;;;;;5092233;28;20022;-69
2023/05/13 08:28:17;;;;;;;;;;;17.00;99.90;;;;;;5091821;28;19949;-69
2023/05/13 08:30:44;;;;;;;;;;;17.00;99.90;;;;;;5092268;28;19912;-70
2023/05/13 08:33:11;;;;;;;;;;;16.90;99.90;;;;;;5085479;28;20375;-70
2023/05/13 08:35:37;;;;;;;;;;;16.90;99.90;;;;;;5089145;28;19966;-69
2023/05/13 08:38:04;;;;;;;;;;;16.90;99.90;;;;;;5091177;28;20391;-70
2023/05/13 08:40:34;;;;;;;;;;;16.90;99.90;;;;;;5091231;28;19908;-70
2023/05/13 08:43:01;;;;;;;;;;;16.80;99.90;;;;;;5088142;28;20389;-71
2023/05/13 08:45:32;;;;;;;;;;;16.80;99.90;;;;;;5089841;28;20472;-69
2023/05/13 08:48:00;;;;;;;;;;;16.80;99.90;;;;;;5090935;28;19926;-70
2023/05/13 08:50:28;;;;;;;;;;;16.70;99.90;;;;;;5090888;28;19912;-70
2023/05/13 08:52:55;;;;;;;;;;;16.60;99.90;;;;;;5090055;28;19912;-70
2023/05/13 08:55:22;;;;;;;;;;;16.70;99.90;;;;;;5090725;28;19912;-70
2023/05/13 08:57:49;;;;;;;;;;;16.60;99.90;;;;;;5092292;28;19908;-69
2023/05/13 09:00:16;;;;;;;;;;;16.50;99.90;;;;;;5092172;28;19920;-68
2023/05/13 09:02:43;;;;;;;;;;;16.50;99.90;;;;;;5073266;28;19920;-68
2023/05/13 09:05:10;;;;;;;;;;;16.40;99.90;;;;;;5091421;28;19913;-69
2023/05/13 09:07:37;;;;;;;;;;;16.40;99.90;;;;;;5092054;28;19962;-71
2023/05/13 09:10:05;;;;;;;;;;;16.40;99.90;;;;;;5091630;28;19912;-70
2023/05/13 09:12:48;;;;;;;;;;;16.40;99.90;;;;;;5091289;28;19912;-69
2023/05/13 09:15:16;;;;;;;;;;;16.30;99.90;;;;;;5092054;28;19953;-68
2023/05/13 09:17:44;;;;;;;;;;;16.30;99.90;;;;;;5091474;28;19960;-68
2023/05/13 09:20:14;;;;;;;;;;;16.30;99.90;;;;;;5091614;28;19978;-69
2023/05/13 09:22:44;;;;;;;;;;;16.30;99.90;;;;;;5074567;28;19922;-69
2023/05/13 09:25:11;;;;;;;;;;;16.30;99.90;;;;;;5095887;28;20395;-68
2023/05/13 09:27:39;;;;;;;;;;;16.40;99.90;;;;;;5095416;28;19931;-68
2023/05/13 09:30:06;;;;;;;;;;;16.40;99.90;;;;;;5095003;28;19961;-69
2023/05/13 09:32:33;;;;;;;;;;;16.40;99.90;;;;;;5092272;28;19912;-69
2023/05/13 09:35:09;;;;;;;;;;;16.50;99.90;;;;;;5095478;28;19942;-67
2023/05/13 09:37:37;;;;;;;;;;;16.60;99.90;;;;;;5095806;28;19990;-69
2023/05/13 09:40:04;;;;;;;;;;;16.70;99.90;;;;;;5095821;28;19961;-70
2023/05/13 09:42:31;;;;;;;;;;;16.70;99.90;;;;;;5094068;28;19928;-72
2023/05/13 09:45:03;;;;;;;;;;;16.80;99.90;;;;;;5094696;28;19912;-73
2023/05/13 09:47:30;;;;;;;;;;;16.70;99.90;;;;;;5095619;28;20414;-70
2023/05/13 09:49:57;;;;;;;;;;;16.80;99.90;;;;;;5095703;28;19904;-70
2023/05/13 09:52:23;;;;;;;;;;;16.80;99.90;;;;;;5094841;28;19912;-71
2023/05/13 09:54:50;;;;;;;;;;;16.80;99.90;;;;;;5077334;28;20007;-69
2023/05/13 09:57:17;;;;;;;;;;;16.70;99.90;;;;;;5095464;28;19912;-71
2023/05/13 09:59:43;;;;;;;;;;;16.70;99.90;;;;;;5095137;28;19958;-71
2023/05/13 10:02:11;;;;;;;;;;;16.70;99.90;;;;;;5095104;28;19924;-69
2023/05/13 10:04:38;;;;;;;;;;;16.70;99.90;;;;;;5094664;28;19919;-70
2023/05/13 10:07:05;;;;;;;;;;;16.70;99.90;;;;;;5094952;28;19914;-69
2023/05/13 10:09:34;;;;;;;;;;;16.60;99.90;;;;;;5095405;28;19913;-73
2023/05/13 10:12:01;;;;;;;;;;;16.70;99.90;;;;;;5094883;28;19908;-70
2023/05/13 10:14:28;;;;;;;;;;;16.70;99.90;;;;;;5094452;28;20292;-69
2023/05/13 10:16:56;;;;;;;;;;;16.60;99.90;;;;;;5095270;28;20508;-70
2023/05/13 10:19:23;;;;;;;;;;;16.70;99.90;;;;;;5095046;28;19931;-69
2023/05/13 10:21:51;;;;;;;;;;;16.70;99.90;;;;;;5094663;28;19916;-70
2023/05/13 10:24:18;;;;;;;;;;;16.70;99.90;;;;;;5092994;28;19968;-71
2023/05/13 10:26:45;;;;;;;;;;;16.70;99.90;;;;;;5094161;28;19923;-71
2023/05/13 10:29:12;;;;;;;;;;;16.70;99.90;;;;;;5093809;28;19916;-72
2023/05/13 10:31:39;;;;;;;;;;;16.70;99.90;;;;;;5092999;28;19920;-69
2023/05/13 10:34:06;;;;;;;;;;;16.60;99.90;;;;;;5093442;28;20007;-71
2023/05/13 10:36:50;;;;;;;;;;;16.50;99.90;;;;;;5094653;28;19908;-69
2023/05/13 10:39:29;;;;;;;;;;;16.50;99.90;;;;;;5093665;28;19997;-69
2023/05/13 10:42:14;;;;;;;;;;;16.40;99.90;;;;;;5093316;28;19920;-69
2023/05/13 10:44:41;;;;;;;;;;;16.40;99.90;;;;;;5094294;28;19966;-69
2023/05/13 10:47:08;;;;;;;;;;;16.30;99.90;;;;;;5094695;28;19908;-68
2023/05/13 10:49:35;;;;;;;;;;;16.20;99.90;;;;;;5094446;28;20250;-67
2023/05/13 10:52:06;;;;;;;;;;;16.20;99.90;;;;;;5093298;28;19916;-70
2023/05/13 10:54:41;;;;;;;;;;;16.10;99.90;;;;;;5094298;28;19912;-69
2023/05/13 10:57:08;;;;;;;;;;;16.00;99.90;;;;;;5094352;28;20392;-73
2023/05/13 10:59:36;;;;;;;;;;;16.00;99.90;;;;;;5094354;28;19916;-73
2023/05/13 11:02:19;;;;;;;;;;;16.00;99.90;;;;;;5093545;28;20377;-71
2023/05/13 11:04:59;;;;;;;;;;;15.90;99.90;;;;;;5093592;28;20365;-74
2023/05/13 11:07:28;;;;;;;;;;;15.80;99.90;;;;;;5094150;28;19912;-73
2023/05/13 11:09:55;;;;;;;;;;;15.80;99.90;;;;;;5093767;28;19940;-70
2023/05/13 11:12:21;;;;;;;;;;;15.80;99.90;;;;;;5092706;28;19912;-72
2023/05/13 11:14:48;;;;;;;;;;;15.80;99.90;;;;;;5093647;28;20269;-69
2023/05/13 11:17:19;;;;;;;;;;;15.70;99.90;;;;;;5093886;28;19965;-71
2023/05/13 11:19:46;;;;;;;;;;;15.70;99.90;;;;;;5092240;28;20001;-69
2023/05/13 11:22:22;;;;;;;;;;;15.70;99.90;;;;;;5092615;28;19927;-69
2023/05/13 11:25:05;;;;;;;;;;;15.70;99.90;;;;;;5093279;28;20284;-72
2023/05/13 11:27:39;;;;;;;;;;;15.70;99.90;;;;;;5093604;28;19995;-70
2023/05/13 11:30:07;;;;;;;;;;;15.70;99.90;;;;;;5093592;28;19908;-71
2023/05/13 11:32:52;;;;;;;;;;;15.80;99.90;;;;;;5093140;28;19915;-71
2023/05/13 11:35:28;;;;;;;;;;;15.80;99.90;;;;;;5093143;28;19953;-73
2023/05/13 11:37:55;;;;;;;;;;;15.70;99.90;;;;;;5092791;28;19908;-71
2023/05/13 11:40:23;;;;;;;;;;;15.80;99.90;;;;;;5093646;28;19916;-70
2023/05/13 11:42:50;;;;;;;;;;;15.80;99.90;;;;;;5093117;28;19920;-69
2023/05/13 11:45:17;;;;;;;;;;;15.80;99.90;;;;;;5093132;28;20272;-70
2023/05/13 11:47:44;;;;;;;;;;;15.80;99.90;;;;;;5092386;28;19908;-73
2023/05/13 11:50:37;;;;;;;;;;;15.80;99.90;;;;;;5092166;28;19969;-71
2023/05/13 11:53:04;;;;;;;;;;;15.80;99.90;;;;;;5090748;28;19912;-70
2023/05/13 11:55:31;;;;;;;;;;;15.70;99.90;;;;;;5093030;28;19912;-73
2023/05/13 11:57:58;;;;;;;;;;;15.70;99.90;;;;;;5092379;28;19912;-72
2023/05/13 12:00:26;;;;;;;;;;;15.80;99.90;;;;;;5092431;28;19912;-72
2023/05/13 12:02:53;;;;;;;;;;;15.70;99.90;;;;;;5092853;28;20011;-73
2023/05/13 12:05:19;;;;;;;;;;;15.70;99.90;;;;;;5092795;28;19912;-70
2023/05/13 12:07:47;;;;;;;;;;;15.70;99.90;;;;;;5093026;28;20275;-69
2023/05/13 12:10:14;;;;;;;;;;;15.60;99.90;;;;;;5092532;28;19915;-69
2023/05/13 12:12:42;;;;;;;;;;;15.50;99.90;;;;;;5092088;28;19919;-68
2023/05/13 12:15:10;;;;;;;;;;;15.50;99.90;;;;;;5092749;28;19969;-72
2023/05/13 12:17:37;;;;;;;;;;;15.40;99.90;;;;;;5092680;28;20364;-74
2023/05/13 12:20:14;;;;;;;;;;;15.40;99.90;;;;;;5092101;28;20430;-69
2023/05/13 12:22:43;;;;;;;;;;;15.40;99.90;;;;;;5091821;28;20012;-69
2023/05/13 12:25:28;;;;;;;;;;;15.30;99.90;;;;;;5092511;28;19912;-71
2023/05/13 12:27:54;;;;;;;;;;;15.20;99.90;;;;;;5091845;28;19912;-71
2023/05/13 12:30:21;;;;;;;;;;;15.20;99.90;;;;;;5092296;28;19912;-74
2023/05/13 12:32:48;;;;;;;;;;;15.20;99.90;;;;;;5091392;28;19935;-70
2023/05/13 12:35:14;;;;;;;;;;;15.10;99.90;;;;;;5091815;28;19939;-72
2023/05/13 12:37:41;;;;;;;;;;;15.10;99.90;;;;;;5092517;28;19969;-71
2023/05/13 12:40:11;;;;;;;;;;;15.00;99.90;;;;;;5091369;28;19916;-70
2023/05/13 12:42:38;;;;;;;;;;;15.00;99.90;;;;;;5091986;28;19927;-70
2023/05/13 12:45:05;;;;;;;;;;;15.00;99.90;;;;;;5092212;28;19916;-69
2023/05/13 12:47:47;;;;;;;;;;;15.00;99.90;;;;;;5092151;28;19916;-69
2023/05/13 12:50:15;;;;;;;;;;;14.90;99.90;;;;;;5091756;28;19935;-69
2023/05/13 12:52:41;;;;;;;;;;;14.90;99.90;;;;;;5091732;28;19912;-69
2023/05/13 12:55:08;;;;;;;;;;;14.90;99.90;;;;;;5092129;28;20277;-73
2023/05/13 12:57:35;;;;;;;;;;;14.90;99.90;;;;;;5092976;28;20379;-74
2023/05/13 13:00:02;;;;;;;;;;;14.80;99.90;;;;;;5096506;28;19955;-70
2023/05/13 13:02:29;;;;;;;;;;;14.80;99.90;;;;;;5095153;28;19920;-75
2023/05/13 13:04:56;;;;;;;;;;;14.80;99.90;;;;;;5096480;28;19908;-73
2023/05/13 13:07:23;;;;;;;;;;;14.70;99.90;;;;;;5096014;28;19949;-75
2023/05/13 13:09:49;;;;;;;;;;;14.70;99.90;;;;;;5096114;28;20360;-70
2023/05/13 13:12:16;;;;;;;;;;;14.70;99.90;;;;;;5095545;28;19916;-70
2023/05/13 13:14:42;;;;;;;;;;;14.60;99.90;;;;;;5095767;28;19916;-70
2023/05/13 13:17:09;;;;;;;;;;;14.60;99.90;;;;;;5096081;28;19908;-70
2023/05/13 13:19:36;;;;;;;;;;;14.60;99.90;;;;;;5095228;28;19919;-70
2023/05/13 13:22:03;;;;;;;;;;;14.50;99.90;;;;;;5090336;28;20396;-68
2023/05/13 13:24:30;;;;;;;;;;;14.50;99.90;;;;;;5096149;28;19908;-74
2023/05/13 13:26:56;;;;;;;;;;;14.50;99.90;;;;;;5094892;28;19948;-74
2023/05/13 13:29:23;;;;;;;;;;;14.50;99.90;;;;;;5095353;28;19959;-73
2023/05/13 13:31:50;;;;;;;;;;;14.40;99.90;;;;;;5095369;28;20561;-75
2023/05/13 13:34:17;;;;;;;;;;;14.40;99.90;;;;;;5094712;28;20000;-71
2023/05/13 13:36:44;;;;;;;;;;;14.40;99.90;;;;;;5095203;28;19912;-72
2023/05/13 13:39:10;;;;;;;;;;;14.40;99.90;;;;;;5095449;28;19912;-69
2023/05/13 13:41:37;;;;;;;;;;;14.30;99.90;;;;;;5077232;28;19928;-71
2023/05/13 13:44:04;;;;;;;;;;;14.30;99.90;;;;;;5094736;28;19998;-70
2023/05/13 13:46:30;;;;;;;;;;;14.30;99.90;;;;;;5094791;28;20437;-71
2023/05/13 13:48:57;;;;;;;;;;;14.30;99.90;;;;;;5095046;28;20369;-70
2023/05/13 13:51:24;;;;;;;;;;;14.20;99.90;;;;;;5095467;28;20011;-69
2023/05/13 13:53:50;;;;;;;;;;;14.20;99.90;;;;;;5095136;28;20362;-69
2023/05/13 13:56:17;;;;;;;;;;;14.20;99.90;;;;;;5073794;28;19934;-71
2023/05/13 13:58:44;;;;;;;;;;;14.20;99.90;;;;;;5093583;28;19912;-69
2023/05/13 14:01:10;;;;;;;;;;;14.10;99.90;;;;;;5095401;28;19961;-72
2023/05/13 14:03:37;;;;;;;;;;;14.10;99.90;;;;;;5094807;28;19963;-74
2023/05/13 14:06:04;;;;;;;;;;;14.10;99.90;;;;;;5095126;28;20006;-71
2023/05/13 14:08:30;;;;;;;;;;;14.00;99.90;;;;;;5094680;28;20377;-72
2023/05/13 14:10:57;;;;;;;;;;;14.00;99.90;;;;;;5094543;28;19915;-69
2023/05/13 14:13:24;;;;;;;;;;;14.10;99.90;;;;;;5095133;28;19931;-69
2023/05/13 14:15:50;;;;;;;;;;;14.00;99.90;;;;;;5095092;28;19908;-69
2023/05/13 14:18:17;;;;;;;;;;;14.00;99.90;;;;;;5094652;28;19912;-70